Aérodrome :
LOGIN :

S'inscrire | Disclaimer

   EN    FR    IT 

 










Légende :    VFR   VFR Marginal   IFR   IFR Intensif   IFR Très Intensif
Visi : 
Plafond : 
>= 8 km
>= 3000ft
5 à 8 km
1000 à 3000 ft
1500m à 5 km
500 à 1000 ft
800 à 1500m
200 à 500 ft
< 800m
< 200 ft
Symboles :   Orages  Brouillard  Fortes neiges  Fortes précipitations  Vent > 20 kt
SIGMETs :   Divers  Orages  Givrage  Turbulence  Onde Orograph.  Cendres Volcan.






- Altitude de l'aérodrome : 600 ft
- Code IATA : VIE


LOWW - Vienna Schwechat

DERNIER METAR :
  • 241820Z 01003KT 9999 FEW036 BKN050 FEW050CB 18/15 Q1010 NOSIG

METARs EXPIRÉS :
  • 241750Z 05005KT 9999 FEW022 BKN050 FEW050CB 18/15 Q1010 NOSIG
  • 241720Z 07006KT 9999 -SHRA FEW030 FEW050CB 19/14 Q1009 RESHRA NOSIG
  • 241650Z 05005KT 9999 FEW050 FEW050CB 20/13 Q1009 TEMPO SHRA
  • 241620Z 08005KT 040V120 9999 FEW050CB 20/13 Q1009 TEMPO TL1700 SHRA TEMPO FM1700 28012G22KT TSRA
  • 241550Z 11008KT 9999 FEW045 FEW050CB 21/12 Q1008 TEMPO TL1700 SHRA TEMPO FM1700 28012G22KT TSRA
  • 241520Z 09006KT 060V120 9999 FEW045 FEW050CB 21/13 Q1008 TEMPO SHRA

TAF TAF LOWW
Valide du 24 à 18h jusqu'au 26 à 00h UTC


241715Z 2418/2524 11004KT 9999 SCT040 TX20/2512Z TN15/2524Z
TEMPO 2418/2501 28012KT SHRA BKN040 FEW040CB
PROB30
TEMPO 2418/2423 28015G25KT TSRA
FM250100 34012KT 9999 BKN030
TEMPO 2501/2507 -SHRA
TEMPO 2512/2516 SHRA BKN040 FEW050CB



MET'MAP, la Météo Aéronautique d'un coup d'oeil ! - Copyright ORBIFLY Décembre 2007 - Disclaimer

ORBIFLY MET'MAP TEAM :

Programmation & Développement : Alexandra Zaïnal
Sur une idée originale de : Baudouin d'Aumeries
Soutien technique & logistique : Manuel Goepfert
Assistance : Marc-Olivier Méhu

Contact : metmap@orbifly.com




SOURCES & CREDITS :

   NOAA